sensor_id;sensor_type;location;lat;lon;timestamp;P1;durP1;ratioP1;P2;durP2;ratioP2
22332;SDS011;11334;36.986;-121.936;2023-07-22T00:00:20;11.05;;;5.28;;
22332;SDS011;11334;36.986;-121.936;2023-07-22T00:02:49;6.38;;;4.90;;
22332;SDS011;11334;36.986;-121.936;2023-07-22T00:05:16;9.23;;;5.43;;
22332;SDS011;11334;36.986;-121.936;2023-07-22T00:07:48;8.80;;;5.47;;
22332;SDS011;11334;36.986;-121.936;2023-07-22T00:10:15;10.00;;;5.35;;
22332;SDS011;11334;36.986;-121.936;2023-07-22T00:12:42;8.32;;;5.05;;
22332;SDS011;11334;36.986;-121.936;2023-07-22T00:15:08;7.70;;;4.97;;
22332;SDS011;11334;36.986;-121.936;2023-07-22T00:17:37;8.93;;;5.13;;
22332;SDS011;11334;36.986;-121.936;2023-07-22T00:20:07;8.52;;;5.30;;
22332;SDS011;11334;36.986;-121.936;2023-07-22T00:22:39;11.20;;;5.63;;
22332;SDS011;11334;36.986;-121.936;2023-07-22T00:25:07;8.43;;;5.47;;
22332;SDS011;11334;36.986;-121.936;2023-07-22T00:27:39;9.65;;;5.90;;
22332;SDS011;11334;36.986;-121.936;2023-07-22T00:30:07;9.80;;;5.07;;
22332;SDS011;11334;36.986;-121.936;2023-07-22T00:32:34;7.95;;;5.15;;
22332;SDS011;11334;36.986;-121.936;2023-07-22T00:35:05;9.00;;;5.60;;
22332;SDS011;11334;36.986;-121.936;2023-07-22T00:37:34;10.23;;;6.00;;
22332;SDS011;11334;36.986;-121.936;2023-07-22T00:40:01;8.00;;;5.05;;
22332;SDS011;11334;36.986;-121.936;2023-07-22T00:42:31;7.53;;;4.45;;
22332;SDS011;11334;36.986;-121.936;2023-07-22T00:44:58;10.07;;;4.93;;
22332;SDS011;11334;36.986;-121.936;2023-07-22T00:47:24;8.13;;;5.03;;
22332;SDS011;11334;36.986;-121.936;2023-07-22T00:49:50;7.00;;;4.60;;
22332;SDS011;11334;36.986;-121.936;2023-07-22T00:52:17;7.95;;;4.78;;
22332;SDS011;11334;36.986;-121.936;2023-07-22T00:54:43;9.30;;;4.75;;
22332;SDS011;11334;36.986;-121.936;2023-07-22T00:57:10;12.88;;;4.88;;
22332;SDS011;11334;36.986;-121.936;2023-07-22T00:59:38;8.40;;;4.80;;
22332;SDS011;11334;36.986;-121.936;2023-07-22T01:02:06;12.68;;;5.50;;
22332;SDS011;11334;36.986;-121.936;2023-07-22T01:04:32;10.82;;;5.22;;
22332;SDS011;11334;36.986;-121.936;2023-07-22T01:07:00;9.57;;;5.43;;
22332;SDS011;11334;36.986;-121.936;2023-07-22T01:09:38;10.25;;;4.90;;
22332;SDS011;11334;36.986;-121.936;2023-07-22T01:12:06;9.50;;;4.50;;
22332;SDS011;11334;36.986;-121.936;2023-07-22T01:14:34;9.20;;;4.30;;
22332;SDS011;11334;36.986;-121.936;2023-07-22T01:17:04;9.40;;;4.75;;
22332;SDS011;11334;36.986;-121.936;2023-07-22T01:19:33;11.90;;;4.88;;
22332;SDS011;11334;36.986;-121.936;2023-07-22T01:22:00;8.98;;;5.00;;
22332;SDS011;11334;36.986;-121.936;2023-07-22T01:24:28;9.82;;;4.88;;
22332;SDS011;11334;36.986;-121.936;2023-07-22T01:26:55;11.77;;;4.88;;
22332;SDS011;11334;36.986;-121.936;2023-07-22T01:29:22;12.48;;;5.18;;
22332;SDS011;11334;36.986;-121.936;2023-07-22T01:31:50;13.35;;;5.25;;
22332;SDS011;11334;36.986;-121.936;2023-07-22T01:34:17;12.40;;;5.35;;
22332;SDS011;11334;36.986;-121.936;2023-07-22T01:36:46;15.65;;;5.20;;
22332;SDS011;11334;36.986;-121.936;2023-07-22T01:39:14;13.25;;;5.68;;
22332;SDS011;11334;36.986;-121.936;2023-07-22T01:41:41;10.57;;;4.82;;
22332;SDS011;11334;36.986;-121.936;2023-07-22T01:44:08;13.82;;;4.72;;
22332;SDS011;11334;36.986;-121.936;2023-07-22T01:46:36;12.20;;;5.22;;
22332;SDS011;11334;36.986;-121.936;2023-07-22T01:49:06;13.50;;;5.15;;
22332;SDS011;11334;36.986;-121.936;2023-07-22T01:51:36;13.95;;;5.65;;
22332;SDS011;11334;36.986;-121.936;2023-07-22T01:54:08;10.07;;;4.82;;
22332;SDS011;11334;36.986;-121.936;2023-07-22T01:56:35;17.10;;;5.72;;
22332;SDS011;11334;36.986;-121.936;2023-07-22T01:59:02;12.93;;;4.60;;
22332;SDS011;11334;36.986;-121.936;2023-07-22T02:01:28;13.57;;;5.20;;
22332;SDS011;11334;36.986;-121.936;2023-07-22T02:03:55;13.50;;;5.00;;
22332;SDS011;11334;36.986;-121.936;2023-07-22T02:06:21;16.55;;;5.47;;
22332;SDS011;11334;36.986;-121.936;2023-07-22T02:08:48;14.30;;;5.50;;
22332;SDS011;11334;36.986;-121.936;2023-07-22T02:11:16;15.10;;;5.30;;
22332;SDS011;11334;36.986;-121.936;2023-07-22T02:13:43;11.73;;;4.68;;
22332;SDS011;11334;36.986;-121.936;2023-07-22T02:16:09;16.45;;;5.22;;
22332;SDS011;11334;36.986;-121.936;2023-07-22T02:18:38;14.23;;;4.93;;
22332;SDS011;11334;36.986;-121.936;2023-07-22T02:21:04;18.92;;;6.72;;
22332;SDS011;11334;36.986;-121.936;2023-07-22T02:23:30;16.70;;;5.97;;
22332;SDS011;11334;36.986;-121.936;2023-07-22T02:25:57;15.27;;;5.38;;
22332;SDS011;11334;36.986;-121.936;2023-07-22T02:28:23;18.35;;;5.72;;
22332;SDS011;11334;36.986;-121.936;2023-07-22T02:30:51;21.52;;;6.10;;
22332;SDS011;11334;36.986;-121.936;2023-07-22T02:33:18;16.17;;;6.13;;
22332;SDS011;11334;36.986;-121.936;2023-07-22T02:35:45;20.30;;;6.18;;
22332;SDS011;11334;36.986;-121.936;2023-07-22T02:38:12;15.75;;;5.55;;
22332;SDS011;11334;36.986;-121.936;2023-07-22T02:40:39;18.45;;;5.82;;
22332;SDS011;11334;36.986;-121.936;2023-07-22T02:43:06;24.75;;;7.00;;
22332;SDS011;11334;36.986;-121.936;2023-07-22T02:45:33;23.10;;;6.13;;
22332;SDS011;11334;36.986;-121.936;2023-07-22T02:47:59;21.75;;;6.20;;
22332;SDS011;11334;36.986;-121.936;2023-07-22T02:50:26;19.42;;;6.25;;
22332;SDS011;11334;36.986;-121.936;2023-07-22T02:52:52;17.90;;;5.95;;
22332;SDS011;11334;36.986;-121.936;2023-07-22T02:55:18;24.02;;;6.38;;
22332;SDS011;11334;36.986;-121.936;2023-07-22T02:57:45;17.15;;;5.97;;
22332;SDS011;11334;36.986;-121.936;2023-07-22T03:00:12;25.75;;;5.72;;
22332;SDS011;11334;36.986;-121.936;2023-07-22T03:02:49;24.73;;;6.43;;
22332;SDS011;11334;36.986;-121.936;2023-07-22T03:05:16;22.83;;;6.65;;
22332;SDS011;11334;36.986;-121.936;2023-07-22T03:07:42;17.27;;;6.18;;
22332;SDS011;11334;36.986;-121.936;2023-07-22T03:10:09;24.67;;;6.05;;
22332;SDS011;11334;36.986;-121.936;2023-07-22T03:12:35;21.92;;;6.38;;
22332;SDS011;11334;36.986;-121.936;2023-07-22T03:15:03;19.50;;;6.25;;
22332;SDS011;11334;36.986;-121.936;2023-07-22T03:17:30;26.23;;;6.45;;
22332;SDS011;11334;36.986;-121.936;2023-07-22T03:19:57;26.67;;;6.45;;
22332;SDS011;11334;36.986;-121.936;2023-07-22T03:22:23;25.23;;;6.43;;
22332;SDS011;11334;36.986;-121.936;2023-07-22T03:24:49;25.08;;;6.80;;
22332;SDS011;11334;36.986;-121.936;2023-07-22T03:27:15;20.27;;;5.68;;
22332;SDS011;11334;36.986;-121.936;2023-07-22T03:29:42;22.88;;;6.10;;
22332;SDS011;11334;36.986;-121.936;2023-07-22T03:32:09;21.25;;;5.57;;
22332;SDS011;11334;36.986;-121.936;2023-07-22T03:34:35;26.38;;;6.43;;
22332;SDS011;11334;36.986;-121.936;2023-07-22T03:37:01;20.08;;;5.90;;
22332;SDS011;11334;36.986;-121.936;2023-07-22T03:39:27;22.65;;;6.47;;
22332;SDS011;11334;36.986;-121.936;2023-07-22T03:41:54;21.63;;;6.45;;
22332;SDS011;11334;36.986;-121.936;2023-07-22T03:44:20;26.50;;;7.40;;
22332;SDS011;11334;36.986;-121.936;2023-07-22T03:46:46;24.42;;;7.45;;
22332;SDS011;11334;36.986;-121.936;2023-07-22T03:49:12;23.63;;;7.85;;
22332;SDS011;11334;36.986;-121.936;2023-07-22T03:51:39;28.27;;;7.22;;
22332;SDS011;11334;36.986;-121.936;2023-07-22T03:54:05;22.05;;;6.30;;
22332;SDS011;11334;36.986;-121.936;2023-07-22T03:56:31;24.17;;;6.90;;
22332;SDS011;11334;36.986;-121.936;2023-07-22T03:58:57;25.60;;;7.15;;
22332;SDS011;11334;36.986;-121.936;2023-07-22T04:01:23;26.33;;;7.55;;
22332;SDS011;11334;36.986;-121.936;2023-07-22T04:03:50;22.10;;;7.80;;
22332;SDS011;11334;36.986;-121.936;2023-07-22T04:06:16;29.90;;;6.85;;
22332;SDS011;11334;36.986;-121.936;2023-07-22T04:08:43;23.90;;;7.18;;
22332;SDS011;11334;36.986;-121.936;2023-07-22T04:11:10;22.73;;;6.80;;
22332;SDS011;11334;36.986;-121.936;2023-07-22T04:13:36;23.08;;;7.07;;
22332;SDS011;11334;36.986;-121.936;2023-07-22T04:16:03;26.45;;;7.38;;
22332;SDS011;11334;36.986;-121.936;2023-07-22T04:18:29;25.95;;;7.20;;
22332;SDS011;11334;36.986;-121.936;2023-07-22T04:20:59;27.27;;;7.22;;
22332;SDS011;11334;36.986;-121.936;2023-07-22T04:23:26;22.63;;;6.78;;
22332;SDS011;11334;36.986;-121.936;2023-07-22T04:25:53;25.30;;;8.10;;
22332;SDS011;11334;36.986;-121.936;2023-07-22T04:28:19;26.20;;;7.55;;
22332;SDS011;11334;36.986;-121.936;2023-07-22T04:30:54;28.13;;;7.47;;
22332;SDS011;11334;36.986;-121.936;2023-07-22T04:33:21;30.48;;;8.52;;
22332;SDS011;11334;36.986;-121.936;2023-07-22T04:35:47;26.85;;;8.00;;
22332;SDS011;11334;36.986;-121.936;2023-07-22T04:38:14;26.52;;;8.13;;
22332;SDS011;11334;36.986;-121.936;2023-07-22T04:40:43;25.77;;;8.02;;
22332;SDS011;11334;36.986;-121.936;2023-07-22T04:43:09;26.20;;;8.18;;
22332;SDS011;11334;36.986;-121.936;2023-07-22T04:45:37;20.63;;;6.88;;
22332;SDS011;11334;36.986;-121.936;2023-07-22T04:48:05;23.50;;;8.32;;
22332;SDS011;11334;36.986;-121.936;2023-07-22T04:50:32;32.17;;;8.48;;
22332;SDS011;11334;36.986;-121.936;2023-07-22T04:52:59;28.45;;;8.55;;
22332;SDS011;11334;36.986;-121.936;2023-07-22T04:55:25;34.85;;;8.82;;
22332;SDS011;11334;36.986;-121.936;2023-07-22T04:57:55;28.98;;;8.88;;
22332;SDS011;11334;36.986;-121.936;2023-07-22T05:00:21;22.83;;;7.68;;
22332;SDS011;11334;36.986;-121.936;2023-07-22T05:02:47;26.50;;;8.25;;
22332;SDS011;11334;36.986;-121.936;2023-07-22T05:05:14;27.73;;;7.50;;
22332;SDS011;11334;36.986;-121.936;2023-07-22T05:07:41;26.80;;;8.00;;
22332;SDS011;11334;36.986;-121.936;2023-07-22T05:10:08;26.30;;;7.88;;
22332;SDS011;11334;36.986;-121.936;2023-07-22T05:12:40;21.50;;;7.25;;
22332;SDS011;11334;36.986;-121.936;2023-07-22T05:15:09;22.30;;;6.45;;
22332;SDS011;11334;36.986;-121.936;2023-07-22T05:17:36;23.92;;;6.30;;
22332;SDS011;11334;36.986;-121.936;2023-07-22T05:20:03;19.88;;;5.68;;
22332;SDS011;11334;36.986;-121.936;2023-07-22T05:22:35;22.00;;;6.30;;
22332;SDS011;11334;36.986;-121.936;2023-07-22T05:25:05;24.15;;;6.55;;
22332;SDS011;11334;36.986;-121.936;2023-07-22T05:27:32;21.98;;;5.30;;
22332;SDS011;11334;36.986;-121.936;2023-07-22T05:29:59;23.10;;;5.47;;
22332;SDS011;11334;36.986;-121.936;2023-07-22T05:32:25;24.55;;;6.70;;
22332;SDS011;11334;36.986;-121.936;2023-07-22T05:34:55;23.65;;;6.00;;
22332;SDS011;11334;36.986;-121.936;2023-07-22T05:37:24;19.15;;;5.82;;
22332;SDS011;11334;36.986;-121.936;2023-07-22T05:39:51;19.70;;;6.60;;
22332;SDS011;11334;36.986;-121.936;2023-07-22T05:42:17;21.05;;;6.25;;
22332;SDS011;11334;36.986;-121.936;2023-07-22T05:44:44;24.38;;;6.32;;
22332;SDS011;11334;36.986;-121.936;2023-07-22T05:47:10;23.70;;;7.00;;
22332;SDS011;11334;36.986;-121.936;2023-07-22T05:49:36;23.88;;;7.05;;
22332;SDS011;11334;36.986;-121.936;2023-07-22T05:52:03;28.80;;;6.97;;
22332;SDS011;11334;36.986;-121.936;2023-07-22T05:54:29;23.63;;;6.13;;
22332;SDS011;11334;36.986;-121.936;2023-07-22T05:56:55;22.10;;;6.45;;
22332;SDS011;11334;36.986;-121.936;2023-07-22T05:59:22;28.30;;;7.60;;
22332;SDS011;11334;36.986;-121.936;2023-07-22T06:01:48;20.63;;;5.78;;
22332;SDS011;11334;36.986;-121.936;2023-07-22T06:04:14;23.50;;;6.75;;
22332;SDS011;11334;36.986;-121.936;2023-07-22T06:06:41;20.52;;;6.05;;
22332;SDS011;11334;36.986;-121.936;2023-07-22T06:09:07;24.35;;;6.22;;
22332;SDS011;11334;36.986;-121.936;2023-07-22T06:11:33;25.85;;;6.40;;
22332;SDS011;11334;36.986;-121.936;2023-07-22T06:13:59;18.80;;;6.63;;
22332;SDS011;11334;36.986;-121.936;2023-07-22T06:16:25;19.90;;;6.57;;
22332;SDS011;11334;36.986;-121.936;2023-07-22T06:18:52;18.27;;;5.93;;
22332;SDS011;11334;36.986;-121.936;2023-07-22T06:21:18;16.58;;;6.15;;
22332;SDS011;11334;36.986;-121.936;2023-07-22T06:23:44;18.30;;;6.13;;
22332;SDS011;11334;36.986;-121.936;2023-07-22T06:26:11;18.50;;;6.38;;
22332;SDS011;11334;36.986;-121.936;2023-07-22T06:28:37;19.75;;;6.05;;
22332;SDS011;11334;36.986;-121.936;2023-07-22T06:31:04;19.85;;;6.22;;
22332;SDS011;11334;36.986;-121.936;2023-07-22T06:33:30;22.98;;;6.43;;
22332;SDS011;11334;36.986;-121.936;2023-07-22T06:35:56;16.90;;;6.35;;
22332;SDS011;11334;36.986;-121.936;2023-07-22T06:38:24;19.85;;;5.57;;
22332;SDS011;11334;36.986;-121.936;2023-07-22T06:40:53;21.35;;;5.55;;
22332;SDS011;11334;36.986;-121.936;2023-07-22T06:43:19;22.00;;;6.40;;
22332;SDS011;11334;36.986;-121.936;2023-07-22T06:45:46;16.77;;;5.18;;
22332;SDS011;11334;36.986;-121.936;2023-07-22T06:48:12;18.35;;;6.03;;
22332;SDS011;11334;36.986;-121.936;2023-07-22T06:50:38;20.95;;;5.80;;
22332;SDS011;11334;36.986;-121.936;2023-07-22T06:53:04;15.15;;;5.32;;
22332;SDS011;11334;36.986;-121.936;2023-07-22T06:55:30;19.58;;;5.68;;
22332;SDS011;11334;36.986;-121.936;2023-07-22T06:57:57;19.60;;;6.15;;
22332;SDS011;11334;36.986;-121.936;2023-07-22T07:00:23;18.50;;;5.40;;
22332;SDS011;11334;36.986;-121.936;2023-07-22T07:02:49;23.73;;;6.13;;
22332;SDS011;11334;36.986;-121.936;2023-07-22T07:05:16;20.42;;;5.85;;
22332;SDS011;11334;36.986;-121.936;2023-07-22T07:07:42;19.38;;;5.43;;
22332;SDS011;11334;36.986;-121.936;2023-07-22T07:10:09;19.42;;;5.97;;
22332;SDS011;11334;36.986;-121.936;2023-07-22T07:12:35;15.15;;;5.38;;
22332;SDS011;11334;36.986;-121.936;2023-07-22T07:15:04;16.48;;;5.18;;
22332;SDS011;11334;36.986;-121.936;2023-07-22T07:17:31;18.13;;;5.60;;
22332;SDS011;11334;36.986;-121.936;2023-07-22T07:19:58;19.75;;;5.07;;
22332;SDS011;11334;36.986;-121.936;2023-07-22T07:22:24;18.92;;;5.68;;
22332;SDS011;11334;36.986;-121.936;2023-07-22T07:24:50;15.68;;;4.88;;
22332;SDS011;11334;36.986;-121.936;2023-07-22T07:27:16;17.02;;;5.38;;
22332;SDS011;11334;36.986;-121.936;2023-07-22T07:29:43;17.15;;;5.70;;
22332;SDS011;11334;36.986;-121.936;2023-07-22T07:32:09;18.73;;;5.55;;
22332;SDS011;11334;36.986;-121.936;2023-07-22T07:34:36;15.88;;;5.15;;
22332;SDS011;11334;36.986;-121.936;2023-07-22T07:37:02;17.58;;;5.82;;
22332;SDS011;11334;36.986;-121.936;2023-07-22T07:39:28;13.30;;;4.38;;
22332;SDS011;11334;36.986;-121.936;2023-07-22T07:41:54;16.77;;;4.85;;
22332;SDS011;11334;36.986;-121.936;2023-07-22T07:44:21;13.52;;;5.22;;
22332;SDS011;11334;36.986;-121.936;2023-07-22T07:46:47;16.02;;;4.40;;
22332;SDS011;11334;36.986;-121.936;2023-07-22T07:49:13;17.25;;;4.97;;
22332;SDS011;11334;36.986;-121.936;2023-07-22T07:51:40;13.48;;;4.47;;
22332;SDS011;11334;36.986;-121.936;2023-07-22T07:54:07;14.95;;;4.55;;
22332;SDS011;11334;36.986;-121.936;2023-07-22T07:56:34;13.27;;;4.50;;
22332;SDS011;11334;36.986;-121.936;2023-07-22T07:59:00;11.27;;;4.53;;
22332;SDS011;11334;36.986;-121.936;2023-07-22T08:01:28;18.83;;;4.95;;
22332;SDS011;11334;36.986;-121.936;2023-07-22T08:03:54;16.23;;;4.63;;
22332;SDS011;11334;36.986;-121.936;2023-07-22T08:06:21;14.80;;;4.38;;
22332;SDS011;11334;36.986;-121.936;2023-07-22T08:08:47;12.45;;;4.50;;
22332;SDS011;11334;36.986;-121.936;2023-07-22T08:11:14;11.38;;;4.18;;
22332;SDS011;11334;36.986;-121.936;2023-07-22T08:13:41;6.75;;;3.53;;
22332;SDS011;11334;36.986;-121.936;2023-07-22T08:16:09;14.10;;;3.78;;
22332;SDS011;11334;36.986;-121.936;2023-07-22T08:18:38;12.63;;;4.25;;
22332;SDS011;11334;36.986;-121.936;2023-07-22T08:21:04;15.15;;;5.13;;
22332;SDS011;11334;36.986;-121.936;2023-07-22T08:23:33;16.02;;;3.95;;
22332;SDS011;11334;36.986;-121.936;2023-07-22T08:25:59;13.15;;;4.75;;
22332;SDS011;11334;36.986;-121.936;2023-07-22T08:28:26;14.00;;;4.40;;
22332;SDS011;11334;36.986;-121.936;2023-07-22T08:30:55;10.23;;;4.30;;
22332;SDS011;11334;36.986;-121.936;2023-07-22T08:33:22;13.98;;;4.70;;
22332;SDS011;11334;36.986;-121.936;2023-07-22T08:35:52;12.88;;;4.95;;
22332;SDS011;11334;36.986;-121.936;2023-07-22T08:38:18;12.82;;;4.90;;
22332;SDS011;11334;36.986;-121.936;2023-07-22T08:40:47;11.63;;;4.90;;
22332;SDS011;11334;36.986;-121.936;2023-07-22T08:43:21;10.07;;;3.95;;
22332;SDS011;11334;36.986;-121.936;2023-07-22T08:45:48;13.68;;;4.55;;
22332;SDS011;11334;36.986;-121.936;2023-07-22T08:48:17;15.15;;;4.20;;
22332;SDS011;11334;36.986;-121.936;2023-07-22T08:53:29;14.52;;;5.22;;
22332;SDS011;11334;36.986;-121.936;2023-07-22T08:55:58;12.43;;;4.97;;
22332;SDS011;11334;36.986;-121.936;2023-07-22T08:58:25;13.88;;;5.47;;
22332;SDS011;11334;36.986;-121.936;2023-07-22T09:00:51;14.30;;;4.40;;
22332;SDS011;11334;36.986;-121.936;2023-07-22T09:03:18;11.73;;;4.47;;
22332;SDS011;11334;36.986;-121.936;2023-07-22T09:05:45;21.02;;;5.18;;
22332;SDS011;11334;36.986;-121.936;2023-07-22T09:08:12;16.05;;;4.95;;
22332;SDS011;11334;36.986;-121.936;2023-07-22T09:10:38;16.95;;;5.40;;
22332;SDS011;11334;36.986;-121.936;2023-07-22T09:13:05;13.27;;;4.95;;
22332;SDS011;11334;36.986;-121.936;2023-07-22T09:15:36;18.70;;;5.47;;
22332;SDS011;11334;36.986;-121.936;2023-07-22T09:18:06;16.63;;;5.72;;
22332;SDS011;11334;36.986;-121.936;2023-07-22T09:20:33;16.27;;;4.63;;
22332;SDS011;11334;36.986;-121.936;2023-07-22T09:23:00;14.45;;;5.20;;
22332;SDS011;11334;36.986;-121.936;2023-07-22T09:25:27;15.27;;;5.50;;
22332;SDS011;11334;36.986;-121.936;2023-07-22T09:27:54;20.58;;;5.13;;
22332;SDS011;11334;36.986;-121.936;2023-07-22T09:30:34;15.13;;;5.40;;
22332;SDS011;11334;36.986;-121.936;2023-07-22T09:33:02;20.42;;;5.03;;
22332;SDS011;11334;36.986;-121.936;2023-07-22T09:35:44;14.52;;;4.72;;
22332;SDS011;11334;36.986;-121.936;2023-07-22T09:38:14;14.65;;;5.03;;
22332;SDS011;11334;36.986;-121.936;2023-07-22T09:40:47;27.85;;;7.25;;
22332;SDS011;11334;36.986;-121.936;2023-07-22T09:43:13;33.90;;;7.97;;
22332;SDS011;11334;36.986;-121.936;2023-07-22T09:45:40;36.70;;;8.48;;
22332;SDS011;11334;36.986;-121.936;2023-07-22T09:48:06;32.78;;;9.45;;
22332;SDS011;11334;36.986;-121.936;2023-07-22T09:50:35;39.20;;;8.80;;
22332;SDS011;11334;36.986;-121.936;2023-07-22T09:53:02;38.83;;;8.55;;
22332;SDS011;11334;36.986;-121.936;2023-07-22T09:55:30;33.53;;;9.10;;
22332;SDS011;11334;36.986;-121.936;2023-07-22T09:58:00;39.63;;;9.40;;
22332;SDS011;11334;36.986;-121.936;2023-07-22T10:00:28;40.70;;;10.13;;
22332;SDS011;11334;36.986;-121.936;2023-07-22T10:03:00;39.28;;;8.80;;
22332;SDS011;11334;36.986;-121.936;2023-07-22T10:05:29;29.90;;;7.63;;
22332;SDS011;11334;36.986;-121.936;2023-07-22T10:07:58;20.42;;;5.85;;
22332;SDS011;11334;36.986;-121.936;2023-07-22T10:10:35;15.93;;;4.20;;
22332;SDS011;11334;36.986;-121.936;2023-07-22T10:13:03;14.38;;;5.45;;
22332;SDS011;11334;36.986;-121.936;2023-07-22T10:15:33;16.83;;;4.55;;
22332;SDS011;11334;36.986;-121.936;2023-07-22T10:18:01;8.07;;;4.15;;
22332;SDS011;11334;36.986;-121.936;2023-07-22T10:20:29;9.25;;;4.28;;
22332;SDS011;11334;36.986;-121.936;2023-07-22T10:22:55;11.95;;;4.55;;
22332;SDS011;11334;36.986;-121.936;2023-07-22T10:25:22;13.48;;;4.95;;
22332;SDS011;11334;36.986;-121.936;2023-07-22T10:27:49;15.65;;;4.20;;
22332;SDS011;11334;36.986;-121.936;2023-07-22T10:30:17;11.48;;;4.35;;
22332;SDS011;11334;36.986;-121.936;2023-07-22T10:32:45;14.27;;;4.45;;
22332;SDS011;11334;36.986;-121.936;2023-07-22T10:40:55;10.55;;;3.80;;
22332;SDS011;11334;36.986;-121.936;2023-07-22T10:45:53;11.77;;;3.95;;
22332;SDS011;11334;36.986;-121.936;2023-07-22T10:48:23;9.30;;;4.15;;
22332;SDS011;11334;36.986;-121.936;2023-07-22T10:51:05;11.02;;;4.60;;
22332;SDS011;11334;36.986;-121.936;2023-07-22T10:53:36;7.97;;;3.70;;
22332;SDS011;11334;36.986;-121.936;2023-07-22T11:01:22;11.60;;;4.65;;
22332;SDS011;11334;36.986;-121.936;2023-07-22T11:07:04;7.47;;;3.63;;
22332;SDS011;11334;36.986;-121.936;2023-07-22T11:12:08;10.68;;;3.88;;
22332;SDS011;11334;36.986;-121.936;2023-07-22T11:17:17;7.22;;;4.10;;
22332;SDS011;11334;36.986;-121.936;2023-07-22T11:19:53;8.55;;;3.83;;
22332;SDS011;11334;36.986;-121.936;2023-07-22T11:22:20;7.95;;;3.80;;
22332;SDS011;11334;36.986;-121.936;2023-07-22T11:24:46;7.53;;;3.85;;
22332;SDS011;11334;36.986;-121.936;2023-07-22T11:27:12;7.60;;;3.97;;
22332;SDS011;11334;36.986;-121.936;2023-07-22T11:29:39;6.07;;;4.18;;
22332;SDS011;11334;36.986;-121.936;2023-07-22T11:32:06;9.82;;;3.70;;
22332;SDS011;11334;36.986;-121.936;2023-07-22T11:34:41;7.88;;;4.35;;
22332;SDS011;11334;36.986;-121.936;2023-07-22T11:37:09;7.63;;;4.07;;
22332;SDS011;11334;36.986;-121.936;2023-07-22T11:39:36;15.77;;;4.20;;
22332;SDS011;11334;36.986;-121.936;2023-07-22T11:42:03;7.05;;;3.78;;
22332;SDS011;11334;36.986;-121.936;2023-07-22T11:44:30;9.68;;;4.35;;
22332;SDS011;11334;36.986;-121.936;2023-07-22T11:49:31;10.95;;;4.30;;
22332;SDS011;11334;36.986;-121.936;2023-07-22T11:52:05;18.73;;;4.28;;
22332;SDS011;11334;36.986;-121.936;2023-07-22T11:54:35;28.90;;;4.65;;
22332;SDS011;11334;36.986;-121.936;2023-07-22T11:57:10;22.27;;;5.43;;
22332;SDS011;11334;36.986;-121.936;2023-07-22T11:59:49;50.75;;;5.72;;
22332;SDS011;11334;36.986;-121.936;2023-07-22T12:02:20;19.90;;;4.88;;
22332;SDS011;11334;36.986;-121.936;2023-07-22T12:04:55;5.38;;;4.10;;
22332;SDS011;11334;36.986;-121.936;2023-07-22T12:07:34;7.03;;;3.78;;
22332;SDS011;11334;36.986;-121.936;2023-07-22T12:10:02;7.30;;;4.05;;
22332;SDS011;11334;36.986;-121.936;2023-07-22T12:12:33;9.90;;;3.70;;
22332;SDS011;11334;36.986;-121.936;2023-07-22T12:15:12;8.15;;;4.00;;
22332;SDS011;11334;36.986;-121.936;2023-07-22T12:18:03;5.85;;;4.43;;
22332;SDS011;11334;36.986;-121.936;2023-07-22T12:20:30;6.38;;;3.80;;
22332;SDS011;11334;36.986;-121.936;2023-07-22T12:22:59;7.55;;;4.25;;
22332;SDS011;11334;36.986;-121.936;2023-07-22T12:25:25;7.95;;;4.25;;
22332;SDS011;11334;36.986;-121.936;2023-07-22T12:27:52;8.27;;;4.18;;
22332;SDS011;11334;36.986;-121.936;2023-07-22T12:30:18;6.65;;;3.92;;
22332;SDS011;11334;36.986;-121.936;2023-07-22T12:32:45;9.18;;;4.20;;
22332;SDS011;11334;36.986;-121.936;2023-07-22T12:35:12;5.63;;;3.78;;
22332;SDS011;11334;36.986;-121.936;2023-07-22T12:37:39;9.77;;;3.65;;
22332;SDS011;11334;36.986;-121.936;2023-07-22T12:40:05;4.20;;;3.28;;
22332;SDS011;11334;36.986;-121.936;2023-07-22T12:42:34;7.30;;;3.30;;
22332;SDS011;11334;36.986;-121.936;2023-07-22T12:45:01;4.47;;;3.17;;
22332;SDS011;11334;36.986;-121.936;2023-07-22T12:47:28;5.18;;;2.85;;
22332;SDS011;11334;36.986;-121.936;2023-07-22T12:49:54;6.28;;;3.55;;
22332;SDS011;11334;36.986;-121.936;2023-07-22T12:52:20;6.03;;;3.65;;
22332;SDS011;11334;36.986;-121.936;2023-07-22T12:54:46;7.00;;;3.90;;
22332;SDS011;11334;36.986;-121.936;2023-07-22T12:57:13;7.57;;;4.35;;
22332;SDS011;11334;36.986;-121.936;2023-07-22T12:59:39;7.53;;;4.53;;
22332;SDS011;11334;36.986;-121.936;2023-07-22T13:02:06;6.32;;;3.83;;
22332;SDS011;11334;36.986;-121.936;2023-07-22T13:04:32;5.43;;;3.60;;
22332;SDS011;11334;36.986;-121.936;2023-07-22T13:06:58;8.77;;;4.25;;
22332;SDS011;11334;36.986;-121.936;2023-07-22T13:09:25;6.80;;;4.05;;
22332;SDS011;11334;36.986;-121.936;2023-07-22T13:11:51;6.25;;;4.00;;
22332;SDS011;11334;36.986;-121.936;2023-07-22T13:14:17;7.07;;;4.63;;
22332;SDS011;11334;36.986;-121.936;2023-07-22T13:16:43;8.73;;;4.50;;
22332;SDS011;11334;36.986;-121.936;2023-07-22T13:19:10;12.27;;;4.82;;
22332;SDS011;11334;36.986;-121.936;2023-07-22T13:21:36;7.32;;;5.05;;
22332;SDS011;11334;36.986;-121.936;2023-07-22T13:24:02;7.15;;;3.90;;
22332;SDS011;11334;36.986;-121.936;2023-07-22T13:26:29;7.25;;;4.43;;
22332;SDS011;11334;36.986;-121.936;2023-07-22T13:28:55;8.82;;;4.18;;
22332;SDS011;11334;36.986;-121.936;2023-07-22T13:31:21;7.40;;;4.18;;
22332;SDS011;11334;36.986;-121.936;2023-07-22T13:33:47;8.18;;;4.47;;
22332;SDS011;11334;36.986;-121.936;2023-07-22T13:36:14;8.32;;;3.67;;
22332;SDS011;11334;36.986;-121.936;2023-07-22T13:38:40;7.25;;;3.65;;
22332;SDS011;11334;36.986;-121.936;2023-07-22T13:41:06;5.90;;;2.95;;
22332;SDS011;11334;36.986;-121.936;2023-07-22T13:43:33;5.40;;;3.35;;
22332;SDS011;11334;36.986;-121.936;2023-07-22T13:45:59;4.88;;;3.05;;
22332;SDS011;11334;36.986;-121.936;2023-07-22T13:48:25;5.07;;;3.03;;
22332;SDS011;11334;36.986;-121.936;2023-07-22T13:50:53;8.63;;;3.10;;
22332;SDS011;11334;36.986;-121.936;2023-07-22T13:53:19;4.15;;;2.78;;
22332;SDS011;11334;36.986;-121.936;2023-07-22T13:55:45;5.30;;;3.65;;
22332;SDS011;11334;36.986;-121.936;2023-07-22T13:58:11;5.57;;;3.35;;
22332;SDS011;11334;36.986;-121.936;2023-07-22T14:00:38;6.35;;;3.15;;
22332;SDS011;11334;36.986;-121.936;2023-07-22T14:03:04;5.10;;;2.60;;
22332;SDS011;11334;36.986;-121.936;2023-07-22T14:05:30;4.85;;;3.30;;
22332;SDS011;11334;36.986;-121.936;2023-07-22T14:07:57;7.75;;;3.85;;
22332;SDS011;11334;36.986;-121.936;2023-07-22T14:10:23;7.40;;;4.18;;
22332;SDS011;11334;36.986;-121.936;2023-07-22T14:12:49;12.73;;;4.80;;
22332;SDS011;11334;36.986;-121.936;2023-07-22T14:15:16;8.02;;;4.28;;
22332;SDS011;11334;36.986;-121.936;2023-07-22T14:17:42;8.77;;;4.70;;
22332;SDS011;11334;36.986;-121.936;2023-07-22T14:20:09;10.50;;;5.15;;
22332;SDS011;11334;36.986;-121.936;2023-07-22T14:22:39;10.65;;;4.50;;
22332;SDS011;11334;36.986;-121.936;2023-07-22T14:25:08;8.05;;;4.20;;
22332;SDS011;11334;36.986;-121.936;2023-07-22T14:27:34;10.32;;;5.22;;
22332;SDS011;11334;36.986;-121.936;2023-07-22T14:30:01;9.32;;;3.85;;